Back to race calendar - Vets, teams and statistics - Printer friendly results

Radcliffe AC 10k Multi Terrain Race

18th April 2010

(This is a sortable table - click column heading)
Thanks to Vince Ashton of VLA Events for compiling these results for UKResults
Filter (choose one only!)
Name:
Cat: Club:
PosNumMFNameCatCatPosClubTime
1207001 Ben RiddellM(001/039)Salford Harriers & AC00:33:23
2216002 Alastair MurrayM(002/039)Horwich RMI Harriers00:34:19
3119003 Martyn BellM40(001/023)Horwich RMI Harriers00:34:59
4198004 Colin RigbyM40(002/023)Horwich RMI Harriers00:35:14
5210005 Mark RussellM40(003/023)Bolton Metro Tri Club00:35:26
655006 Gavin HillM(003/039)Unattached00:35:43
7126007 Paul SimonsM45(001/032)Salford Harriers & AC00:35:46
8109008 Colin WalkerM(004/039)Pudsey & Bramley AC00:35:54
9102009 Paul StevensonM45(002/032)Pudsey & Bramley AC00:35:55
10129010 Steve NolanM50(001/032)Horwich RMI Harriers00:35:56
11206011 Michael MurrayM45(003/032)Bolton Metro Tri Club00:36:14
1283012 Simon ParkinsonM(005/039)Horwich RMI Harriers00:36:36
13197013 David TownsendM40(004/023)Wigan Phoenix00:36:38
1417014 Peter ChanM45(004/032)Astley & Tyldesley RC00:36:40
15223015 Philip TaylorM50(002/032)Rossendale Harriers00:36:45
1668016 John KnowlesM(006/039)Burnden Road Runners00:36:50
17190017 Martyn PollittM45(005/032)Burnden Road Runners00:37:25
1864018 I JacksonM40(005/023)Salford Harriers & AC00:37:32
19158019 Thornton TaylorM50(003/032)Rossendale Harriers00:37:37
20164020 Shaun MoranM50(004/032)Astley & Tyldesley RC00:37:40
2163021 David JacksonM40(006/023)Horwich RMI Harriers00:37:42
22122022 Simon FordM(007/039)Astley & Tyldesley RC00:37:44
2313023 Tony FlanaghanM40(007/023)Swinton Running Club00:37:56
2472024 Dennis MasonM(008/039)Horwich RMI Harriers00:37:58
25212 001Tess WalkerF(001/020)Salford Harriers & AC00:38:01
26134025 Keith ThomasM50(005/032)Burnden Road Runners00:38:07
27121 002Dionne AllenF(002/020)Horwich RMI Harriers00:38:10
2829026 Steven DoxeyM45(006/032)Swinton Running Club00:38:20
29132027 Stewart JonesM50(006/032)Burnden Road Runners00:39:02
30145028 Troy WatsonM40(008/023)Wesham Road Runners00:39:03
31189029 Graham MorrisM45(007/032)Accrington Road Runners00:39:15
32176030 Malcolm CollinsM40(009/023)Astley & Tyldesley RC00:39:19
33156031 Gary AthertonM(009/039)Astley & Tyldesley RC00:39:21
34199032 Phil IddonM(010/039)Chorley Harriers00:39:27
3522033 Russ CorsiniM50(007/032)Darwen Dashers00:40:04
36169034 Paul BoardmanM45(008/032)Horwich RMI Harriers00:40:10
37211035 Lee CloughM(011/039)Clayton le Moors Harriers00:40:19
38136036 Chris LeachM50(008/032)Rochdale Harriers00:40:28
39120037 Gary ChaddertonM45(009/032)Horwich RMI Harriers00:40:35
40133038 Doug FlemingM50(009/032)Horwich RMI Harriers00:40:37
4192039 Paul RutherfordM45(010/032)Swinton Running Club00:40:40
42142040 Chris GreensladeM(012/039)Burnden Road Runners00:40:43
43162041 Gary StevensM(013/039)Astley & Tyldesley RC00:40:44
44214042 Pete HopleyM40(010/023)Burnden Road Runners00:40:54
45241043 Andy FarleyM50(010/032)East Cheshire Harriers00:41:03
4620044 Jonathan CollinsM(014/039)Stainland Lions00:41:07
47221045 Lee FarnellM(015/039)Unattached00:41:12
48233046 Stephen DiazM(016/039)Horwich RMI Harriers00:41:27
49140047 David ParkinsonM40(011/023)Chorley Harriers00:41:34
50157048 Ken TaylorM60(001/009)Rossendale Harriers00:41:35
51208049 Chris LomaxM40(012/023)Swinton Running Club00:41:37
5242 003Joanna GoorneyF40(001/013)Wesham Road Runners00:41:38
5396050 Les SmalleyM45(011/032)Bury AC00:41:42
5470 004Josie MaleyF(003/020)Astley & Tyldesley RC00:41:43
55177051 Terry GardinerM45(012/032)Astley & Tyldesley RC00:41:47
56229052 James LorriganM(017/039)Belle Vue Racers00:41:54
57235053 David ShawM45(013/032)Salford Harriers & AC00:41:56
58170054 David MellorM55(001/019)Stockport Harriers00:41:58
59113055 Ronald WarrenderM50(011/032)Salford Harriers & AC00:42:11
6032056 Michael EdgeM50(012/032)Wesham Road Runners00:42:20
61196057 Paul JacksonM40(013/023)Chorley Harriers00:42:26
62128058 Ian PudgeM(018/039)Fell Ponies00:42:31
6377059 Gary MooreM45(014/032)Wesham Road Runners00:42:36
6457060 Alan HiltonM(019/039)Astley & Tyldesley RC00:42:42
65173061 Ken BurgessM65(001/009)Altrincham & Dist. AC00:42:44
66191 005Isaline HughesF40(002/013)Burnden Road Runners00:42:45
67209062 Andy DuffyM45(015/032)Burnden Road Runners00:42:50
6874063 Owen McgillM40(014/023)Darwen Dashers00:42:55
6984064 Roger ParrisM50(013/032)Swinton Running Club00:42:57
70242065 Chris FordeM50(014/032)TPCC00:42:58
71144066 Andrew NightingaleM(020/039)Wigan Phoenix00:43:01
72185 006Kirsty PreeceF40(003/013)Burnden Road Runners00:43:02
73114067 Dave WaywellM65(002/009)Wesham Road Runners00:43:04
7443068 Barry GreavesM50(015/032)Royton Road Runners00:43:06
7566069 Robert KellettM40(015/023)Royton Road Runners00:43:12
76174070 Tim FowlerM50(016/032)Basingstoke&Mid Hants AC00:43:13
77205071 Mark LysychiaM45(016/032)Astley & Tyldesley RC00:43:32
7893 007Sarah SherrattF35(001/011)Wesham Road Runners00:43:36
7995072 Michael SlaterM45(017/032)Stockport Harriers00:43:44
80222073 Jeffrey PickupM55(002/019)Clayton le Moors Harriers00:43:50
81167074 Greg RuscoeM(021/039)Astley & Tyldesley RC00:44:00
82243075 Colin WoodM50(017/032)Horwich RMI Harriers00:44:02
83127076 Dave KellyM55(003/019)Rossendale Harriers00:44:03
84135077 Dave PearsonM55(004/019)Burnden Road Runners00:44:06
85168078 Craig BradburyM(022/039)Astley & Tyldesley RC00:44:12
8651 008Joanne HaslamF35(002/011)Darwen Dashers00:44:14
87186079 Tom DanielsM60(002/009)Salford Harriers & AC00:44:15
8825080 Matt CromptonM(023/039)Astley & Tyldesley RC00:44:17
89143081 Chris NightingaleM40(016/023)Wigan Phoenix00:44:18
90154 009Katie GeelanF35(003/011)Bury AC00:44:19
91104 010Carmel SullivanF40(004/013)Wesham Road Runners00:44:22
9241082 Anthony GoldingM(024/039)Unattached00:44:23
93182083 William ProutM50(018/032)Salford Mets00:44:24
94192084 Pete BlandM60(003/009)Horwich RMI Harriers00:44:33
952085 David AshworthM50(019/032)Lostock AC00:44:41
96218086 Leon RichardsM40(017/023)Unattached00:44:44
97146087 David FloodM40(018/023)Bury AC00:44:58
98148088 Tom TempleM55(005/019)Salford Harriers & AC00:44:59
9999089 Brian SpeakeM40(019/023)Unattached00:45:00
100163090 Steve FosterM45(018/032)Astley & Tyldesley RC00:45:03
101141091 Don NicholM50(020/032)Burnden Road Runners00:45:04
102131092 Philip D'NettoM40(020/023)Belle Vue Racers00:45:05
103100 011Shirley StaveleyF45(001/009)Burnden Road Runners00:45:13
104244 012Joan JacksonF50(001/009)Northern Vets AC00:45:21
10580093 Paul MurrayM65(003/009)Horwich RMI Harriers00:45:34
106130 013Lesley FisherF50(002/009)Burnden Road Runners00:45:40
10735 014Janine FallonF(004/020)Darwen Dashers00:45:43
108194094 Robert WhitakerM(025/039)Horwich RMI Harriers00:45:50
1091 015Sarah AylmerF45(002/009)Stockport Harriers00:46:06
110125 016Michaela DempseyF40(005/013)Wesham Road Runners00:46:07
11146095 Robbie GreensladeM(026/039)Unattached00:46:08
11236 017Anne FergusonF50(003/009)Burnden Road Runners00:46:10
113224 018Karen TaylorF50(004/009)Rossendale Harriers00:46:16
11471 019Lauren MarsdenF35(004/011)Swinton Running Club00:46:25
115245096 Gordon StoneM50(021/032)Horwich RMI Harriers00:46:32
116112 020Brenda WaneF45(003/009)Astley & Tyldesley RC00:46:35
11779097 Vin MurphyM65(004/009)Salford Harriers & AC00:46:48
118166098 Raymond TaylorM50(022/032)Astley & Tyldesley RC00:46:56
119187099 Ian HamiltonM55(006/019)Astley & Tyldesley RC00:46:58
120236100 David WagstaffM(027/039)Horwich RMI Harriers00:47:13
121172101 David PrestonM55(007/019)Wesham Road Runners00:47:15
12224102 Jason CravenM(028/039)Unattached00:47:18
12345103 Simon GreeneM55(008/019)Unattached00:47:21
12497 021Vicky SmithF(005/020)Belle Vue Racers00:47:25
1254104 Steve BeardmoreM45(019/032)Unattached00:47:32
12669105 Philip LeaverM55(009/019)Wesham Road Runners00:47:35
127193106 David HansonM(029/039)Unattached00:47:36
12838 022Lucy FosterF(006/020)Unattached00:47:37
12928 023Rachel DaviesF(007/020)Unattached00:47:38
13018 024Linda ClarksonF40(006/013)Darwen Dashers00:47:42
131230107 David GrundyM45(020/032)Bury AC00:47:45
132226108 Chris GreenallM40(021/023)Burnden Road Runners00:48:01
133188109 Ged TurnerM50(023/032)Edgworth RC00:48:04
13426110 David CroweM45(021/032)Astley & Tyldesley RC00:48:06
13598111 Tom SnaithM45(022/032)Belle Vue Racers00:48:10
1366112 Mark BirchallM(030/039)Swinton Running Club00:48:35
13782113 Martin O'BrienM50(024/032)Stainland Lions00:48:44
13847 025Suzanne GregoryF35(005/011)Astley & Tyldesley RC00:48:53
13962 026Kath HoyerF50(005/009)Wesham Road Runners00:48:55
140179 027Tracy GibsonF40(007/013)East Cheshire Harriers00:49:03
14189114 Andy RobertsM45(023/032)Belle Vue Racers00:49:12
14234115 Russell EganM45(024/032)Darwen Dashers00:49:13
143184116 Dennis MoranM60(004/009)Salford Harriers & AC00:49:15
144153 028Carole BainesF45(004/009)Astley & Tyldesley RC00:49:18
14581117 Nigel NeedhamM(031/039)Unattached00:49:19
14675118 Des MilesM45(025/032)Unattached00:49:24
1478 029Susan BoothF45(005/009)Burnden Road Runners00:49:36
14886119 John PickupM45(026/032)Swinton Running Club00:49:49
14990120 Frank RogersM(032/039)Belle Vue Racers00:50:01
15048121 Barry GuyM55(010/019)Belle Vue Racers00:50:04
151204122 Roland BownessM60(005/009)Salford Harriers & AC00:50:07
152149 030Natalie MurphyF40(008/013)Rossendale Harriers00:50:16
153152123 Gary BainesM50(025/032)Astley & Tyldesley RC00:50:22
154237 031Janet GrintF(008/020)East Cheshire Harriers00:50:34
15565124 Stephen JonesM50(026/032)Salford Harriers & AC00:50:45
156111125 Derek WaltonM65(005/009)Altrincham & Dist. AC00:50:53
157160 032Louise McAvleyF(009/020)Accrington Road Runners00:50:54
158137126 Mike LilleyM50(027/032)Swinton Running Club00:50:57
159239127 Glyn ThomsonM(033/039)Unattached00:50:59
160147128 Nigel ShepherdM50(028/032)Wesham Road Runners00:51:13
161219129 Gerard McNeilM45(027/032)Unattached00:51:13
162118130 Johnny WinterM(034/039)Wesham Road Runners00:51:19
163138 033Kath HorwillF35(006/011)Belle Vue Racers00:51:20
16478 034Katherine MoyserF(010/020)Unattached00:51:34
165201131 John PurdyM45(028/032)Rochdale Harriers00:51:37
166171132 David JenkinsM45(029/032)Unattached00:51:40
167178133 Richard WlodarczykM55(011/019)East Cheshire Harriers00:51:51
16885 035Daryl PeterF(011/020)Chorley Harriers00:51:57
16921134 Peter CookeM50(029/032)Wesham Road Runners00:52:31
170124 036Sarah GreenF45(006/009)Swinton Running Club00:52:41
171165 037Heidi JacksonF(012/020)Accrington Road Runners00:52:42
172151135 Gerard NavanM65(006/009)Rossendale Harriers00:52:43
173159136 Chris BarnesM(035/039)Accrington Road Runners00:52:44
17488137 John RileyM70(001/001)Northern Vets AC00:52:46
175195138 Peter MarshM60(006/009)Swinton Running Club00:52:47
176228139 John SandsM65(007/009)Wigan Phoenix00:52:48
17776 038Rebecca MillsF(013/020)Swinton Running Club00:52:51
17814140 Mark ButlerM45(030/032)Burnden Road Runners00:52:57
179103 039Cathy StrattonF(014/020)Unattached00:53:12
1803141 Paul BasnettM40(022/023)Astley & Tyldesley RC00:53:25
18140 040Michelle FullerF35(007/011)Astley & Tyldesley RC00:53:32
182180 041Andrea MaidmentF40(009/013)East Cheshire Harriers00:53:36
1837 042Cecilia BoodhooF45(007/009)Belle Vue Racers00:53:41
184117142 David WilliamsonM40(023/023)Swinton Running Club00:54:00
18510143 Tony BrayM55(012/019)Unattached00:54:10
18650144 Steve HartM50(030/032)Swinton Running Club00:54:17
18731 043Kerry EcclesF45(008/009)Wesham Road Runners00:54:19
188240 044Vanessa ThomsonF(015/020)Astley & Tyldesley RC00:54:29
189238 045Michelle FaircloughF(016/020)Astley & Tyldesley RC00:54:38
190139 046Alison ParkinsonF40(010/013)South Ribble Runners00:54:39
19115 047Kate CammishF35(008/011)Unattached00:54:40
19239 048Julia FoyF40(011/013)Belle Vue Racers00:54:45
19354 049Tina HicksF(017/020)Belle Vue Racers00:54:52
194175 050Claire FosterF35(009/011)Burnden Road Runners00:55:11
195225145 Alexander TurnbullM60(007/009)Wigan Phoenix00:55:30
196234146 Chris WorthingtonM(036/039)Unattached00:55:39
197181 051Ann CherryF50(006/009)East Cheshire Harriers00:56:02
19816147 Chris CashM50(031/032)Darwen Dashers00:56:14
199220148 Harvey WiseglassM60(008/009)Unattached00:56:16
20073149 Peter McDadeM55(013/019)Chorley Harriers00:56:20
20149 052Carol HartF45(009/009)Swinton Running Club00:56:47
202183150 Kevin EgertonM55(014/019)Belle Vue Racers00:57:05
203213 053Liz HopleyF40(012/013)Burnden Road Runners00:57:18
2045151 Graham BentonM50(032/032)Maltby Running Club00:57:22
20533152 John EganM55(015/019)Burnden Road Runners00:57:26
20661153 Michael HortonM(037/039)Swinton Running Club00:57:30
207106154 Gerry ToplisM55(016/019)Unattached00:57:33
208116155 Stephen WhittleM55(017/019)Northern Vets AC00:57:33
209123156 Ian ThomasM55(018/019)Swinton Running Club00:57:34
21037157 Frank FinniganM45(031/032)Unattached00:57:51
21156 054Tanya HillisF40(013/013)Preston Harriers00:58:06
212115 055Anne WebsterF50(007/009)Belle Vue Racers00:58:12
213231 056Anne DochertyF50(008/009)Wesham Road Runners00:58:39
214150 057Christine NavanF65(001/001)Rossendale Harriers00:58:45
215217 058Louise RobinsonF35(010/011)Unattached00:58:55
21660 059Elizabeth HolmanF(018/020)Unattached00:59:07
217227 060Christine HartF50(009/009)Wigan Phoenix00:59:28
218215 061Charlotte RamsdenF(019/020)Swinton Running Club01:00:08
219161158 Malcolm TowlerM65(008/009)Northern Vets AC01:00:26
22059 062Elaiane HodsonF(020/020)Astley & Tyldesley RC01:00:53
221203 063Jaqui BeeversF55(001/002)Burnden Road Runners01:02:30
222232159 Norman BatemanM65(009/009)Wesham Road Runners01:02:33
223108 064Tracy ParryF35(011/011)Astley & Tyldesley RC01:02:52
224202160 Ken BeeversM60(009/009)Burnden Road Runners01:04:27
22552 065Anne HewittF60(001/001)Rossendale Harriers01:05:22
226155161 Ian MannM(038/039)Unattached01:05:35
22794162 Paul ShierM(039/039)Swinton Running Club01:06:06
22830163 Michael DunnM45(032/032)Preston Harriers01:06:52
229200 066Pat StrathonF55(002/002)Unattached01:12:09
23053164 Les HewittM55(019/019)Spectrum Striders01:13:21

Copyright © 2010 John Schofield. Unauthorised copying prohibited
Back to race calendar - Top of page - Vets, teams and statistics